Time;durP1;ratioP1;P1;durP2;ratioP2;P2;SDS_P1;SDS_P2;PMS_P1;PMS_P2;Temp;Humidity;BMP_temperature;BMP_pressure;BME280_temperature;BME280_humidity;BME280_pressure;Samples;Min_cycle;Max_cycle;Signal;HPM_P1;HPM_P2
2022/12/19 00:00:36;;;;;;;12.73;9.10;;;-3.00;99.90;;;;;;5033827;28;20527;-48
2022/12/19 00:03:03;;;;;;;12.80;8.90;;;-3.10;99.90;;;;;;5033465;28;20440;-51
2022/12/19 00:05:30;;;;;;;10.23;7.60;;;-3.20;99.90;;;;;;5033844;28;20456;-48
2022/12/19 00:07:57;;;;;;;9.60;7.33;;;-3.20;99.90;;;;;;5033651;28;20559;-48
2022/12/19 00:10:24;;;;;;;10.60;7.00;;;-3.10;99.90;;;;;;5033740;28;20934;-49
2022/12/19 00:12:51;;;;;;;7.67;5.57;;;-3.00;99.90;;;;;;5033434;28;20442;-47
2022/12/19 00:15:17;;;;;;;7.17;5.60;;;-2.80;99.90;;;;;;5033675;28;20441;-48
2022/12/19 00:17:46;;;;;;;8.50;6.20;;;-2.80;99.90;;;;;;5033287;28;20476;-50
2022/12/19 00:20:12;;;;;;;8.97;5.70;;;-2.80;99.90;;;;;;5033605;28;20525;-50
2022/12/19 00:22:39;;;;;;;14.00;9.23;;;-2.90;99.90;;;;;;5033330;28;20449;-48
2022/12/19 00:25:07;;;;;;;11.60;7.93;;;-3.20;99.90;;;;;;5033192;28;20480;-48
2022/12/19 00:27:34;;;;;;;5.53;3.13;;;-3.30;99.90;;;;;;5033463;28;20554;-50
2022/12/19 00:30:01;;;;;;;3.93;2.40;;;-3.10;99.90;;;;;;5033248;28;20535;-50
2022/12/19 00:32:28;;;;;;;5.87;3.23;;;-2.90;99.90;;;;;;5033437;28;20545;-49
2022/12/19 00:34:56;;;;;;;4.67;3.07;;;-2.80;99.90;;;;;;5032827;28;20499;-48
2022/12/19 00:37:23;;;;;;;4.20;3.20;;;-2.60;99.90;;;;;;5032950;28;21014;-48
2022/12/19 00:39:50;;;;;;;4.23;2.43;;;-2.50;99.90;;;;;;5033253;28;20532;-50
2022/12/19 00:42:17;;;;;;;3.70;2.80;;;-2.40;99.90;;;;;;5033025;28;20533;-51
2022/12/19 00:44:44;;;;;;;6.60;4.57;;;-2.40;99.90;;;;;;5032853;28;20566;-48
2022/12/19 00:47:10;;;;;;;8.87;6.03;;;-2.40;99.90;;;;;;5033271;28;20454;-50
2022/12/19 00:49:37;;;;;;;6.63;6.00;;;-2.30;99.90;;;;;;5032935;28;20492;-48
2022/12/19 00:52:06;;;;;;;9.20;7.00;;;-2.70;99.90;;;;;;5033018;28;20547;-48
2022/12/19 00:54:32;;;;;;;7.43;6.10;;;-2.80;99.90;;;;;;5032577;28;20447;-50
2022/12/19 00:56:59;;;;;;;7.40;6.50;;;-2.80;99.90;;;;;;5032719;28;20470;-48
2022/12/19 00:59:26;;;;;;;10.77;7.10;;;-2.90;99.90;;;;;;5032383;28;20451;-48
2022/12/19 01:01:53;;;;;;;9.60;6.50;;;-2.90;99.90;;;;;;5032871;28;20984;-49
2022/12/19 01:04:20;;;;;;;10.20;8.23;;;-2.90;99.90;;;;;;5032448;28;20568;-48
2022/12/19 01:06:48;;;;;;;8.83;5.60;;;-2.90;99.90;;;;;;5032641;28;20543;-48
2022/12/19 01:09:16;;;;;;;8.20;5.60;;;-3.10;99.90;;;;;;5032555;28;20449;-48
2022/12/19 01:14:27;;;;;;;4.03;3.63;;;-2.90;99.90;;;;;;5032194;28;20496;-48
2022/12/19 01:16:54;;;;;;;5.63;3.93;;;-2.80;99.90;;;;;;5032147;28;20546;-49
2022/12/19 01:19:21;;;;;;;4.00;3.40;;;-2.80;99.90;;;;;;5032461;28;20530;-48
2022/12/19 01:21:48;;;;;;;3.93;2.90;;;-2.60;99.90;;;;;;5032093;28;20955;-50
2022/12/19 01:24:16;;;;;;;5.67;3.43;;;-2.50;99.90;;;;;;5031958;28;20575;-48
2022/12/19 01:26:43;;;;;;;4.23;2.93;;;-2.40;99.90;;;;;;5032241;28;20468;-48
2022/12/19 01:29:10;;;;;;;5.97;4.03;;;-2.30;99.90;;;;;;5032057;28;20485;-48
2022/12/19 01:31:37;;;;;;;8.63;6.50;;;-2.50;99.90;;;;;;5032066;28;20523;-49
2022/12/19 01:34:04;;;;;;;7.00;5.00;;;-2.60;99.90;;;;;;5032066;28;20529;-48
2022/12/19 01:36:31;;;;;;;7.13;4.90;;;-2.70;99.90;;;;;;5031843;28;20562;-48
2022/12/19 01:38:58;;;;;;;7.70;3.70;;;-2.60;99.90;;;;;;5031992;28;20442;-49
2022/12/19 01:41:26;;;;;;;6.07;3.50;;;-2.60;99.90;;;;;;5032147;28;20535;-49
2022/12/19 01:44:00;;;;;;;7.37;4.07;;;-2.40;99.90;;;;;;5031770;28;20479;-48
2022/12/19 01:46:30;;;;;;;4.27;3.87;;;-2.30;99.90;;;;;;5031790;28;20836;-49
2022/12/19 01:48:57;;;;;;;5.93;5.37;;;-2.30;99.90;;;;;;5031789;28;20533;-48
2022/12/19 01:51:27;;;;;;;3.57;2.83;;;-2.30;99.90;;;;;;5031797;28;20448;-50
2022/12/19 01:53:59;;;;;;;3.93;2.90;;;-2.20;99.90;;;;;;5030949;28;20925;-50
2022/12/19 01:56:34;;;;;;;2.90;2.30;;;-2.20;99.90;;;;;;5031547;28;20980;-48
2022/12/19 01:59:04;;;;;;;2.83;2.10;;;-2.00;99.90;;;;;;5031263;28;20442;-48
2022/12/19 02:01:31;;;;;;;5.03;3.40;;;-1.90;99.90;;;;;;5031659;28;20485;-48
2022/12/19 02:03:59;;;;;;;5.67;3.40;;;-2.00;99.90;;;;;;5031315;28;20908;-48
2022/12/19 02:06:27;;;;;;;4.53;3.60;;;-2.20;99.90;;;;;;5031720;28;20547;-48
2022/12/19 02:08:55;;;;;;;4.13;3.73;;;-2.20;99.90;;;;;;5031594;28;20450;-48
2022/12/19 02:11:22;;;;;;;8.83;4.83;;;-2.20;99.90;;;;;;5031526;28;20533;-48
2022/12/19 02:13:50;;;;;;;8.13;5.13;;;-2.30;99.90;;;;;;5031524;28;20529;-48
2022/12/19 02:16:29;;;;;;;9.10;5.00;;;-2.40;99.90;;;;;;5031507;28;20553;-47
2022/12/19 02:19:04;;;;;;;6.20;4.90;;;-2.40;99.90;;;;;;5031876;28;20498;-48
2022/12/19 02:21:43;;;;;;;5.10;4.20;;;-2.40;99.90;;;;;;5031689;28;20856;-48
2022/12/19 02:24:50;;;;;;;5.90;3.73;;;-2.40;99.90;;;;;;5031217;28;20482;-51
2022/12/19 02:27:52;;;;;;;4.23;3.67;;;-2.40;99.90;;;;;;5031122;28;21047;-48
2022/12/19 02:30:46;;;;;;;3.80;3.17;;;-2.30;99.90;;;;;;5031499;28;20446;-48
2022/12/19 02:33:18;;;;;;;3.33;2.37;;;-2.10;99.90;;;;;;5028418;28;20453;-49
2022/12/19 02:35:52;;;;;;;3.47;2.23;;;-2.00;99.90;;;;;;5031521;28;20528;-49
2022/12/19 02:38:26;;;;;;;2.37;1.80;;;-1.90;99.90;;;;;;5032514;28;20545;-49
2022/12/19 02:41:00;;;;;;;5.10;3.90;;;-1.80;99.90;;;;;;5031344;28;20453;-51
2022/12/19 02:43:30;;;;;;;4.67;4.27;;;-1.90;99.90;;;;;;5030734;28;20444;-48
2022/12/19 02:45:59;;;;;;;4.63;3.90;;;-2.00;99.90;;;;;;5031129;28;20699;-48
2022/12/19 02:48:27;;;;;;;7.27;5.00;;;-2.20;99.90;;;;;;5031194;28;20446;-50
2022/12/19 02:50:54;;;;;;;6.53;5.00;;;-2.30;99.90;;;;;;5031150;28;20549;-49
2022/12/19 02:53:21;;;;;;;5.50;5.00;;;-2.40;99.90;;;;;;5030853;28;20438;-49
2022/12/19 02:56:00;;;;;;;5.93;4.67;;;-2.50;99.90;;;;;;5030965;28;20522;-48
2022/12/19 02:58:39;;;;;;;5.27;4.73;;;-2.60;99.90;;;;;;5030680;28;20442;-48
2022/12/19 03:01:22;;;;;;;5.93;4.73;;;-2.70;99.90;;;;;;5031114;28;20477;-48
2022/12/19 03:04:02;;;;;;;8.43;5.60;;;-2.70;99.90;;;;;;5031111;28;20449;-49
2022/12/19 03:06:36;;;;;;;5.93;4.10;;;-2.70;99.90;;;;;;5034437;28;20644;-48
2022/12/19 03:09:10;;;;;;;6.10;3.67;;;-2.60;99.90;;;;;;5035125;28;20447;-50
2022/12/19 03:11:40;;;;;;;4.40;3.67;;;-2.50;99.90;;;;;;5034540;28;20801;-49
2022/12/19 03:14:11;;;;;;;4.13;3.13;;;-2.40;99.90;;;;;;5034393;28;21006;-51
2022/12/19 03:16:40;;;;;;;3.37;2.60;;;-2.20;99.90;;;;;;5034602;28;20462;-48
2022/12/19 03:19:10;;;;;;;4.67;3.30;;;-2.10;99.90;;;;;;5034497;28;20438;-48
2022/12/19 03:21:39;;;;;;;4.07;3.60;;;-2.00;99.90;;;;;;5034697;28;20442;-48
2022/12/19 03:24:08;;;;;;;5.80;4.97;;;-2.00;99.90;;;;;;5033813;28;20868;-51
2022/12/19 03:26:41;;;;;;;6.37;4.67;;;-2.10;99.90;;;;;;5034394;28;20550;-49
2022/12/19 03:29:13;;;;;;;3.83;3.43;;;-2.40;99.90;;;;;;5034421;28;20530;-51
2022/12/19 03:31:44;;;;;;;3.90;3.30;;;-2.30;99.90;;;;;;5034378;28;21017;-51
2022/12/19 03:34:18;;;;;;;3.27;2.77;;;-2.10;99.90;;;;;;5034447;28;20531;-48
2022/12/19 03:36:49;;;;;;;3.67;2.40;;;-2.10;99.90;;;;;;5034309;28;20474;-48
2022/12/19 03:39:17;;;;;;;2.40;2.20;;;-2.00;99.90;;;;;;5034305;28;20525;-48
2022/12/19 03:44:35;;;;;;;6.60;5.77;;;-1.80;99.90;;;;;;5033980;28;20511;-52
2022/12/19 03:47:09;;;;;;;9.50;5.50;;;-2.00;99.90;;;;;;5034150;28;20874;-48
2022/12/19 03:49:36;;;;;;;8.80;5.67;;;-2.30;99.90;;;;;;5034043;28;20882;-48
2022/12/19 03:52:13;;;;;;;6.70;5.13;;;-2.40;99.90;;;;;;5033850;28;20541;-48
2022/12/19 03:54:43;;;;;;;7.57;5.53;;;-2.30;99.90;;;;;;5033942;28;20471;-47
2022/12/19 03:57:14;;;;;;;6.43;3.80;;;-2.40;99.90;;;;;;5033429;28;20471;-48
2022/12/19 03:59:46;;;;;;;3.83;2.93;;;-2.30;99.90;;;;;;5033997;28;20859;-48
2022/12/19 04:02:16;;;;;;;4.90;3.27;;;-2.10;99.90;;;;;;5033856;28;20453;-49
2022/12/19 04:04:47;;;;;;;5.03;3.17;;;-2.00;99.90;;;;;;5032870;28;21029;-48
2022/12/19 04:07:15;;;;;;;5.13;4.50;;;-1.90;99.90;;;;;;5033554;28;20466;-48
2022/12/19 04:09:44;;;;;;;5.30;4.00;;;-1.90;99.90;;;;;;5033977;28;20456;-49
2022/12/19 04:12:15;;;;;;;6.60;4.27;;;-2.00;99.90;;;;;;5033512;28;20537;-48
2022/12/19 04:14:42;;;;;;;7.10;4.63;;;-2.10;99.90;;;;;;5033615;28;20441;-48
2022/12/19 04:17:20;;;;;;;5.37;4.83;;;-2.10;99.90;;;;;;5032778;28;20469;-48
2022/12/19 04:19:53;;;;;;;5.20;3.80;;;-2.10;99.90;;;;;;5033546;28;20808;-48
2022/12/19 04:22:25;;;;;;;6.30;5.10;;;-2.10;99.90;;;;;;5033359;28;20546;-48
2022/12/19 04:24:54;;;;;;;7.70;5.60;;;-2.00;99.90;;;;;;5033376;28;20489;-48
2022/12/19 04:27:22;;;;;;;6.73;5.80;;;-2.10;99.90;;;;;;5033131;28;20974;-49
2022/12/19 04:29:55;;;;;;;5.33;4.27;;;-2.00;99.90;;;;;;5033278;28;21012;-48
2022/12/19 04:32:24;;;;;;;4.67;3.53;;;-1.90;99.90;;;;;;5033301;28;20807;-48
2022/12/19 04:34:51;;;;;;;4.53;4.10;;;-1.90;99.90;;;;;;5033006;28;20529;-48
2022/12/19 04:37:18;;;;;;;4.57;4.17;;;-1.80;99.90;;;;;;5032883;28;20485;-48
2022/12/19 04:39:45;;;;;;;7.40;5.23;;;-1.80;99.90;;;;;;5032973;28;20439;-48
2022/12/19 04:42:12;;;;;;;8.60;5.33;;;-1.90;99.90;;;;;;5033341;28;20533;-48
2022/12/19 04:44:39;;;;;;;6.80;5.37;;;-1.80;99.90;;;;;;5032969;28;20884;-50
2022/12/19 04:47:06;;;;;;;5.70;5.07;;;-1.90;99.90;;;;;;5033090;28;20463;-48
2022/12/19 04:49:34;;;;;;;4.57;4.17;;;-2.00;99.90;;;;;;5032826;28;20884;-48
2022/12/19 04:52:01;;;;;;;7.20;4.50;;;-2.20;99.90;;;;;;5032802;28;20486;-48
2022/12/19 04:54:28;;;;;;;6.80;5.37;;;-2.30;99.90;;;;;;5032348;28;20440;-49
2022/12/19 04:56:54;;;;;;;6.10;4.20;;;-2.30;99.90;;;;;;5032391;28;21003;-49
2022/12/19 04:59:21;;;;;;;4.60;3.50;;;-2.20;99.90;;;;;;5032704;28;20468;-48
2022/12/19 05:01:48;;;;;;;4.63;3.80;;;-2.00;99.90;;;;;;5032866;28;20445;-50
2022/12/19 05:04:15;;;;;;;3.87;3.30;;;-1.90;99.90;;;;;;5032538;28;20503;-49
2022/12/19 05:06:43;;;;;;;4.93;3.30;;;-1.70;99.90;;;;;;5032338;28;21154;-48
2022/12/19 05:09:11;;;;;;;5.33;4.30;;;-1.60;99.90;;;;;;5031740;28;20536;-52
2022/12/19 05:11:38;;;;;;;6.13;4.83;;;-1.60;99.90;;;;;;5031887;28;20441;-48
2022/12/19 05:14:05;;;;;;;7.77;5.93;;;-1.80;99.90;;;;;;5032347;28;20540;-49
2022/12/19 05:16:32;;;;;;;7.50;6.80;;;-1.70;99.90;;;;;;5031949;28;20469;-48
2022/12/19 05:18:59;;;;;;;6.60;5.97;;;-1.80;99.90;;;;;;5032745;28;20454;-49
2022/12/19 05:21:26;;;;;;;6.87;6.20;;;-1.80;99.90;;;;;;5032194;28;20446;-48
2022/12/19 05:23:55;;;;;;;7.33;6.63;;;-1.90;99.90;;;;;;5032690;28;20531;-48
2022/12/19 05:26:22;;;;;;;13.30;5.00;;;-1.90;99.90;;;;;;5031044;28;20565;-50
2022/12/19 05:28:48;;;;;;;6.60;4.30;;;-1.80;99.90;;;;;;5031286;28;21023;-48
2022/12/19 05:31:18;;;;;;;7.70;6.00;;;-1.70;99.90;;;;;;5032134;28;20549;-49
2022/12/19 05:33:46;;;;;;;5.20;4.10;;;-1.80;99.90;;;;;;5029839;28;20442;-48
2022/12/19 05:36:15;;;;;;;5.03;4.23;;;-1.90;99.90;;;;;;5031372;28;20910;-48
2022/12/19 05:38:42;;;;;;;5.20;4.43;;;-1.80;99.90;;;;;;5012350;28;20466;-50
2022/12/19 05:41:14;;;;;;;6.23;4.10;;;-1.80;99.90;;;;;;5018830;28;20439;-50
2022/12/19 05:43:42;;;;;;;4.70;4.30;;;-1.70;99.90;;;;;;5015060;28;20447;-49
2022/12/19 05:46:09;;;;;;;6.93;4.90;;;-1.60;99.90;;;;;;5022002;28;20516;-49
2022/12/19 05:48:36;;;;;;;7.00;5.50;;;-1.50;99.90;;;;;;5032105;28;20439;-48
2022/12/19 05:51:03;;;;;;;7.63;5.60;;;-1.60;99.90;;;;;;5031867;28;20537;-49
2022/12/19 05:53:30;;;;;;;8.43;6.70;;;-1.60;99.90;;;;;;5029725;28;20451;-52
2022/12/19 05:56:04;;;;;;;9.33;7.90;;;-1.60;99.90;;;;;;5031525;28;20444;-49
2022/12/19 05:58:32;;;;;;;11.07;8.50;;;-1.70;99.90;;;;;;5031278;28;20832;-49
2022/12/19 06:01:02;;;;;;;10.40;8.10;;;-1.60;99.90;;;;;;5031607;28;20442;-48
2022/12/19 06:03:29;;;;;;;6.30;5.70;;;-1.50;99.90;;;;;;5031701;28;20450;-48
2022/12/19 06:05:56;;;;;;;13.30;7.43;;;-1.60;99.90;;;;;;5031558;28;20844;-49
2022/12/19 06:08:23;;;;;;;7.50;6.20;;;-1.90;99.90;;;;;;5030577;28;20944;-51
2022/12/19 06:10:50;;;;;;;5.90;4.57;;;-1.90;99.90;;;;;;5030223;28;20886;-48
2022/12/19 06:13:17;;;;;;;7.60;4.83;;;-1.80;99.90;;;;;;5030163;28;20477;-49
2022/12/19 06:15:45;;;;;;;3.77;2.93;;;-1.70;99.90;;;;;;5028714;28;20493;-49
2022/12/19 06:18:12;;;;;;;3.83;2.97;;;-1.50;99.90;;;;;;5030588;28;20546;-48
2022/12/19 06:20:39;;;;;;;5.37;3.73;;;-1.40;99.90;;;;;;5031276;28;20565;-48
2022/12/19 06:23:05;;;;;;;7.33;5.80;;;-1.40;99.90;;;;;;5030666;28;21043;-50
2022/12/19 06:25:32;;;;;;;10.73;9.00;;;-1.40;99.90;;;;;;5030956;28;20489;-49
2022/12/19 06:27:59;;;;;;;9.87;8.07;;;-1.40;99.90;;;;;;5030653;28;20898;-48
2022/12/19 06:30:26;;;;;;;11.50;7.93;;;-1.50;99.90;;;;;;5030899;28;21041;-48
2022/12/19 06:32:54;;;;;;;14.27;9.80;;;-1.60;99.90;;;;;;5031369;28;20537;-46
2022/12/19 06:35:21;;;;;;;11.13;8.80;;;-1.80;99.90;;;;;;5031320;28;20452;-48
2022/12/19 06:37:49;;;;;;;7.30;6.60;;;-1.70;99.90;;;;;;5031095;28;20504;-48
2022/12/19 06:42:21;;;;;;;9.70;6.80;;;-1.70;99.90;;;;;;5034256;28;20822;-52
2022/12/19 06:43:02;;;;;;;6.17;5.03;;;-1.60;99.90;;;;;;5034895;28;20855;-48
2022/12/19 06:45:30;;;;;;;7.37;6.67;;;-1.40;99.90;;;;;;5034852;28;20484;-49
2022/12/19 06:47:58;;;;;;;9.53;7.80;;;-1.40;99.90;;;;;;5035227;28;20993;-48
2022/12/19 06:50:25;;;;;;;10.60;9.17;;;-1.40;99.90;;;;;;5035476;28;20457;-48
2022/12/19 06:52:52;;;;;;;10.90;8.90;;;-1.40;99.90;;;;;;5034918;28;20452;-46
2022/12/19 06:55:19;;;;;;;13.67;10.67;;;-1.60;99.90;;;;;;5035171;28;20446;-48
2022/12/19 06:57:46;;;;;;;15.13;10.20;;;-1.60;99.90;;;;;;5034810;28;20489;-48
2022/12/19 07:00:13;;;;;;;13.90;10.60;;;-1.60;99.90;;;;;;5034955;28;20529;-48
2022/12/19 07:02:43;;;;;;;12.07;10.87;;;-1.50;99.90;;;;;;5034885;28;20442;-49
2022/12/19 07:05:13;;;;;;;12.73;9.63;;;-1.40;99.90;;;;;;5033021;28;20540;-50
2022/12/19 07:07:40;;;;;;;12.37;10.63;;;-1.40;99.90;;;;;;5033293;28;20549;-51
2022/12/19 07:10:09;;;;;;;12.20;10.90;;;-1.30;99.90;;;;;;5033322;28;20446;-48
2022/12/19 07:12:36;;;;;;;18.70;11.77;;;-1.40;99.90;;;;;;5033073;28;20535;-48
2022/12/19 07:15:03;;;;;;;15.07;10.67;;;-1.30;99.90;;;;;;5033006;28;20507;-49
2022/12/19 07:17:30;;;;;;;13.03;11.67;;;-1.50;99.90;;;;;;5032943;28;21012;-48
2022/12/19 07:19:58;;;;;;;13.53;10.37;;;-1.70;99.90;;;;;;5033670;28;20449;-48
2022/12/19 07:22:31;;;;;;;12.70;10.40;;;-1.60;99.90;;;;;;5034697;28;20465;-48
2022/12/19 07:24:58;;;;;;;8.57;7.67;;;-1.50;99.90;;;;;;5034407;28;20485;-48
2022/12/19 07:27:26;;;;;;;8.03;7.27;;;-1.50;99.90;;;;;;5033766;28;20561;-50
2022/12/19 07:29:53;;;;;;;6.30;5.57;;;-1.50;99.90;;;;;;5034222;28;20447;-49
2022/12/19 07:32:21;;;;;;;9.27;5.17;;;-1.40;99.90;;;;;;5034456;28;20529;-48
2022/12/19 07:34:48;;;;;;;6.90;3.97;;;-1.30;99.90;;;;;;5033788;28;20446;-48
2022/12/19 07:37:15;;;;;;;8.47;6.27;;;-1.30;99.90;;;;;;5033731;28;20551;-48
2022/12/19 07:39:43;;;;;;;31.33;24.87;;;-1.20;99.90;;;;;;5034235;28;20442;-48
2022/12/19 07:42:10;;;;;;;11.10;9.40;;;-1.40;99.90;;;;;;5034406;28;20466;-48
2022/12/19 07:44:37;;;;;;;17.80;13.50;;;-1.50;99.90;;;;;;5033982;28;20529;-48
2022/12/19 07:47:03;;;;;;;14.80;11.00;;;-1.60;99.90;;;;;;5033830;28;20568;-49
2022/12/19 07:49:30;;;;;;;19.70;14.40;;;-1.50;99.90;;;;;;5033887;28;21046;-51
2022/12/19 07:51:57;;;;;;;17.67;15.03;;;-1.70;99.90;;;;;;5032913;28;20884;-49
2022/12/19 07:54:24;;;;;;;14.50;13.00;;;-1.70;99.90;;;;;;5033466;28;20973;-48
2022/12/19 07:56:52;;;;;;;14.53;12.40;;;-1.70;99.90;;;;;;5033761;28;20546;-52
2022/12/19 07:59:19;;;;;;;18.27;12.83;;;-1.60;99.90;;;;;;5033465;28;21002;-51
2022/12/19 08:01:46;;;;;;;14.93;13.00;;;-1.60;99.90;;;;;;5033821;28;20450;-49
2022/12/19 08:04:13;;;;;;;14.90;11.03;;;-1.50;99.90;;;;;;5033502;28;20534;-49
2022/12/19 08:06:40;;;;;;;14.63;9.57;;;-1.40;99.90;;;;;;5033350;28;20924;-48
2022/12/19 08:09:07;;;;;;;11.37;8.57;;;-1.30;99.90;;;;;;5033493;28;20533;-48
2022/12/19 08:11:33;;;;;;;13.93;10.43;;;-1.20;99.90;;;;;;5033389;28;20452;-49
2022/12/19 08:14:02;;;;;;;15.23;13.50;;;-1.10;99.90;;;;;;5033335;28;20446;-50
2022/12/19 08:16:28;;;;;;;17.10;14.47;;;-1.20;99.90;;;;;;5033603;28;20462;-47
2022/12/19 08:18:55;;;;;;;18.53;15.20;;;-1.10;99.90;;;;;;5033515;28;20434;-48
2022/12/19 08:21:22;;;;;;;32.93;20.57;;;-1.10;99.90;;;;;;5032659;28;20469;-52
2022/12/19 08:23:49;;;;;;;31.70;19.13;;;-1.00;99.90;;;;;;5032402;28;20494;-50
2022/12/19 08:26:23;;;;;;;20.07;15.27;;;-1.20;99.90;;;;;;5033041;28;20489;-48
2022/12/19 08:28:50;;;;;;;16.83;14.00;;;-1.30;99.90;;;;;;5032012;28;20449;-49
2022/12/19 08:31:19;;;;;;;10.77;9.10;;;-1.10;99.90;;;;;;5031601;28;21046;-49
2022/12/19 08:33:46;;;;;;;14.20;11.73;;;-1.20;99.90;;;;;;5031709;28;20529;-48
2022/12/19 08:36:23;;;;;;;13.60;11.97;;;-1.30;99.90;;;;;;5032146;28;20552;-53
2022/12/19 08:38:51;;;;;;;17.33;15.00;;;-1.20;99.90;;;;;;5030948;28;20525;-48
2022/12/19 08:41:18;;;;;;;21.73;18.17;;;-1.10;99.90;;;;;;5031816;28;20430;-52
2022/12/19 08:43:49;;;;;;;19.43;15.60;;;-1.00;99.90;;;;;;5031500;28;20987;-48
2022/12/19 08:46:16;;;;;;;14.43;12.90;;;-1.30;99.90;;;;;;5031408;28;20569;-48
2022/12/19 08:48:45;;;;;;;18.90;13.80;;;-1.20;99.90;;;;;;5031387;28;20501;-49
2022/12/19 08:51:14;;;;;;;16.03;11.07;;;-1.00;99.90;;;;;;5031221;28;20695;-50
2022/12/19 08:53:43;;;;;;;10.73;8.13;;;-0.90;99.90;;;;;;5030792;28;20445;-49
2022/12/19 08:56:13;;;;;;;8.87;7.33;;;-0.80;99.90;;;;;;5031285;28;20554;-49
2022/12/19 08:58:40;;;;;;;8.93;7.10;;;-0.80;99.90;;;;;;5030563;28;20626;-50
2022/12/19 09:01:09;;;;;;;13.23;11.00;;;-0.70;99.90;;;;;;5032535;28;20529;-51
2022/12/19 09:03:36;;;;;;;19.40;14.40;;;-0.80;99.90;;;;;;5029057;28;20975;-49
2022/12/19 09:06:07;;;;;;;17.00;13.03;;;-0.80;99.90;;;;;;5031112;28;20812;-49
2022/12/19 09:08:35;;;;;;;23.17;16.17;;;-0.90;99.90;;;;;;5031870;28;20984;-49
2022/12/19 09:11:04;;;;;;;22.27;17.40;;;-0.90;99.90;;;;;;5032088;28;20829;-49
2022/12/19 09:13:32;;;;;;;22.30;20.00;;;-1.10;99.90;;;;;;5031671;28;20534;-49
2022/12/19 09:16:00;;;;;;;18.43;16.50;;;-1.00;99.90;;;;;;5031619;28;20533;-48
2022/12/19 09:18:27;;;;;;;20.20;18.10;;;-0.80;99.90;;;;;;5032393;28;20446;-48
2022/12/19 09:20:55;;;;;;;19.07;16.33;;;-0.70;99.90;;;;;;5032315;28;20541;-49
2022/12/19 09:23:25;;;;;;;17.00;15.30;;;-0.70;99.90;;;;;;5032327;28;20445;-48
2022/12/19 09:25:52;;;;;;;16.70;15.00;;;-0.70;99.90;;;;;;5032238;28;20940;-51
2022/12/19 09:28:19;;;;;;;18.60;14.40;;;-0.60;99.90;;;;;;5032205;28;20549;-48
2022/12/19 09:30:54;;;;;;;29.87;23.67;;;-0.50;99.90;;;;;;5032589;28;20450;-48
2022/12/19 09:33:21;;;;;;;26.90;21.87;;;-0.50;99.90;;;;;;5031689;28;20442;-49
2022/12/19 09:35:50;;;;;;;23.17;20.00;;;-0.50;99.90;;;;;;5031861;28;20536;-48
2022/12/19 09:38:18;;;;;;;23.33;20.47;;;-0.40;99.90;;;;;;5031920;28;20454;-50
2022/12/19 09:40:58;;;;;;;19.67;17.57;;;-0.40;99.90;;;;;;5031937;28;20485;-49
2022/12/19 09:43:39;;;;;;;16.20;14.60;;;-0.50;99.90;;;;;;5031813;28;20873;-48
2022/12/19 09:46:16;;;;;;;13.67;11.80;;;-0.40;99.90;;;;;;5032001;28;20444;-48
2022/12/19 09:48:43;;;;;;;15.20;12.53;;;-0.40;99.90;;;;;;5032102;28;20449;-48
2022/12/19 09:51:14;;;;;;;12.33;11.03;;;-0.30;99.90;;;;;;5031916;28;20546;-48
2022/12/19 09:53:52;;;;;;;11.23;9.77;;;-0.20;99.90;;;;;;5031720;28;20525;-48
2022/12/19 09:56:22;;;;;;;10.23;8.60;;;-0.20;99.90;;;;;;5031819;28;20569;-49
2022/12/19 09:58:54;;;;;;;17.77;14.70;;;-0.10;99.90;;;;;;5031545;28;20896;-49
2022/12/19 10:01:24;;;;;;;22.63;18.63;;;-0.10;99.90;;;;;;5031794;28;20439;-50
2022/12/19 10:03:59;;;;;;;11.13;8.30;;;-0.20;99.90;;;;;;5031217;28;20450;-48
2022/12/19 10:06:26;;;;;;;10.13;8.90;;;-0.10;99.90;;;;;;5031583;28;20500;-49
2022/12/19 10:08:53;;;;;;;10.13;7.70;;;0.00;99.90;;;;;;5031694;28;20541;-48
2022/12/19 10:11:38;;;;;;;20.80;16.67;;;0.10;99.90;;;;;;5031368;28;20442;-48
2022/12/19 10:14:18;;;;;;;33.70;23.90;;;0.00;99.90;;;;;;5030810;28;20866;-48
2022/12/19 10:16:55;;;;;;;32.83;25.50;;;0.00;99.90;;;;;;5031457;28;20547;-48
2022/12/19 10:19:33;;;;;;;34.27;25.10;;;0.00;99.90;;;;;;5031515;28;20525;-52
2022/12/19 10:22:09;;;;;;;25.73;20.27;;;0.00;99.90;;;;;;5031300;28;20855;-49
2022/12/19 10:24:50;;;;;;;32.47;22.57;;;0.10;99.90;;;;;;5031112;28;20974;-50
2022/12/19 10:27:28;;;;;;;31.10;22.20;;;0.00;99.90;;;;;;5025304;28;20479;-48
2022/12/19 10:30:07;;;;;;;31.77;24.07;;;0.00;99.90;;;;;;5029766;28;20811;-49
2022/12/19 10:32:40;;;;;;;29.87;22.00;;;0.00;99.90;;;;;;5030646;28;21009;-49
2022/12/19 10:35:13;;;;;;;23.77;19.10;;;0.10;99.90;;;;;;5031178;28;20887;-49
2022/12/19 10:37:47;;;;;;;23.40;19.60;;;0.20;99.90;;;;;;5030707;28;20480;-49
2022/12/19 10:40:23;;;;;;;27.43;22.70;;;0.20;99.90;;;;;;5024130;28;20443;-48
2022/12/19 10:42:56;;;;;;;36.30;25.57;;;0.10;99.90;;;;;;5013402;28;20522;-49
2022/12/19 10:45:25;;;;;;;37.40;25.47;;;0.20;99.90;;;;;;5008046;28;20534;-48
2022/12/19 10:47:57;;;;;;;33.20;25.23;;;0.30;99.90;;;;;;5008370;28;20480;-50
2022/12/19 10:50:28;;;;;;;25.97;22.07;;;0.30;99.90;;;;;;5010404;28;20451;-49
2022/12/19 10:53:06;;;;;;;26.27;23.57;;;0.40;99.90;;;;;;5009650;28;20463;-49
2022/12/19 10:55:43;;;;;;;26.67;22.33;;;0.40;99.90;;;;;;5010989;28;20451;-50
2022/12/19 10:58:21;;;;;;;23.87;20.63;;;0.30;99.90;;;;;;5009571;28;20999;-48
2022/12/19 11:01:01;;;;;;;27.27;21.93;;;0.30;99.90;;;;;;5010899;28;20494;-48
2022/12/19 11:03:28;;;;;;;25.87;22.30;;;0.30;99.90;;;;;;5010230;28;20801;-48
2022/12/19 11:05:56;;;;;;;21.30;18.80;;;0.30;99.90;;;;;;5010716;28;20439;-50
2022/12/19 11:08:25;;;;;;;20.13;17.87;;;0.30;99.90;;;;;;5011024;28;20472;-49
2022/12/19 11:10:55;;;;;;;19.30;17.27;;;0.30;99.90;;;;;;5011205;28;20475;-48
2022/12/19 11:13:26;;;;;;;20.57;18.50;;;0.40;99.90;;;;;;5010965;28;20527;-49
2022/12/19 11:15:54;;;;;;;25.80;22.03;;;0.30;99.90;;;;;;5010914;28;20443;-49
2022/12/19 11:18:21;;;;;;;20.47;18.57;;;0.30;99.90;;;;;;5010894;28;20546;-48
2022/12/19 11:20:58;;;;;;;28.60;22.80;;;0.30;99.90;;;;;;5010699;28;20542;-49
2022/12/19 11:23:28;;;;;;;27.17;23.93;;;0.40;99.90;;;;;;5010876;28;20869;-48
2022/12/19 11:25:58;;;;;;;30.40;25.80;;;0.40;99.90;;;;;;5011931;28;20447;-48
2022/12/19 11:28:31;;;;;;;29.63;25.90;;;0.50;99.90;;;;;;5014544;28;20471;-49
2022/12/19 11:31:02;;;;;;;21.23;18.47;;;0.50;99.90;;;;;;5014102;28;20958;-48
2022/12/19 11:33:29;;;;;;;22.10;18.80;;;0.70;99.90;;;;;;5014204;28;20975;-49
2022/12/19 11:35:58;;;;;;;22.20;19.70;;;0.70;99.90;;;;;;5014438;28;20567;-49
2022/12/19 11:38:34;;;;;;;38.60;29.93;;;0.70;99.90;;;;;;5014605;28;20481;-50
2022/12/19 11:41:09;;;;;;;42.40;29.40;;;0.60;99.90;;;;;;5014265;28;20443;-49
2022/12/19 11:43:44;;;;;;;38.93;30.00;;;0.60;99.90;;;;;;5014084;28;20529;-50
2022/12/19 11:46:17;;;;;;;36.60;29.27;;;0.60;99.90;;;;;;5014434;28;20570;-49
2022/12/19 11:48:49;;;;;;;17.27;15.30;;;0.50;99.90;;;;;;5013874;28;20566;-48
2022/12/19 11:51:21;;;;;;;13.40;12.00;;;0.60;99.90;;;;;;5014358;28;20534;-49
2022/12/19 11:53:56;;;;;;;17.30;15.07;;;0.60;99.90;;;;;;5014138;28;20545;-49
2022/12/19 11:56:24;;;;;;;17.47;15.57;;;0.60;99.90;;;;;;5014012;28;20883;-49
2022/12/19 11:58:57;;;;;;;23.00;15.47;;;0.60;99.90;;;;;;5013342;28;20447;-48
2022/12/19 12:01:46;;;;;;;18.50;16.50;;;0.70;99.90;;;;;;5014015;28;20545;-49
2022/12/19 12:04:41;;;;;;;22.70;19.30;;;0.80;99.90;;;;;;5013962;28;20435;-49
2022/12/19 12:07:09;;;;;;;32.93;25.80;;;0.90;99.90;;;;;;5013746;28;20566;-48
2022/12/19 12:09:45;;;;;;;31.40;24.73;;;0.90;99.90;;;;;;5014035;28;20943;-49
2022/12/19 12:12:20;;;;;;;29.20;25.63;;;1.00;99.90;;;;;;5013161;28;20937;-49
2022/12/19 12:15:07;;;;;;;26.53;23.70;;;1.10;99.90;;;;;;5013377;28;20546;-49
2022/12/19 12:17:47;;;;;;;26.10;22.40;;;1.10;99.90;;;;;;5013827;28;20499;-49
2022/12/19 12:20:26;;;;;;;25.57;23.07;;;1.10;99.90;;;;;;5013782;28;20526;-50
2022/12/19 12:23:10;;;;;;;25.50;22.60;;;1.20;99.90;;;;;;5013393;28;20815;-47
2022/12/19 12:25:50;;;;;;;25.77;22.70;;;1.30;99.90;;;;;;5013702;28;20937;-49
2022/12/19 12:28:40;;;;;;;23.13;20.53;;;1.30;99.90;;;;;;5013524;28;20510;-49
2022/12/19 12:31:20;;;;;;;21.07;17.70;;;1.20;99.90;;;;;;5014702;28;21200;-49
2022/12/19 12:33:59;;;;;;;19.73;17.63;;;1.10;99.90;;;;;;5020818;28;20967;-49
2022/12/19 12:36:33;;;;;;;18.83;16.83;;;1.20;99.90;;;;;;5011397;28;20566;-51
2022/12/19 12:39:04;;;;;;;21.23;16.00;;;1.40;99.90;;;;;;5011763;28;20534;-48
2022/12/19 12:44:24;;;;;;;14.63;12.90;;;1.40;99.90;;;;;;5012831;28;20794;-49
2022/12/19 12:47:02;;;;;;;15.77;14.17;;;1.40;99.90;;;;;;5013032;28;20806;-49
2022/12/19 12:49:37;;;;;;;15.90;13.73;;;1.40;99.90;;;;;;5013391;28;20846;-48
2022/12/19 12:52:07;;;;;;;23.57;20.50;;;1.40;99.90;;;;;;5012398;28;20443;-49
2022/12/19 12:54:36;;;;;;;26.43;23.73;;;1.40;99.90;;;;;;5011606;28;20449;-49
2022/12/19 12:57:03;;;;;;;30.97;27.43;;;1.40;99.90;;;;;;5011645;28;20510;-49
2022/12/19 12:59:31;;;;;;;19.73;17.63;;;1.30;99.90;;;;;;5012246;28;20446;-49
2022/12/19 13:02:01;;;;;;;17.17;15.40;;;1.20;99.90;;;;;;5012832;28;20451;-49
2022/12/19 13:04:32;;;;;;;16.93;14.53;;;1.20;99.90;;;;;;5012777;28;20439;-50